createdAt,value
2023-05-16T00:01:09.288Z,98979.35
2023-05-16T00:06:12.156Z,98979.17
2023-05-16T00:11:17.169Z,98974.27
2023-05-16T00:16:21.786Z,98975.27
2023-05-16T00:21:24.965Z,98971.79
2023-05-16T00:26:27.585Z,98973.46
2023-05-16T00:31:30.441Z,98967.31
2023-05-16T00:36:32.986Z,98963.06
2023-05-16T00:41:35.684Z,98964.16
2023-05-16T00:46:38.385Z,98961.87
2023-05-16T00:51:41.787Z,98960.73
2023-05-16T00:56:44.424Z,98964.62
2023-05-16T01:01:50.248Z,98964.06
2023-05-16T01:06:53.230Z,98966.70
2023-05-16T01:12:07.542Z,98974.11
2023-05-16T01:17:23.411Z,98972.54
2023-05-16T01:22:46.959Z,98976.41
2023-05-16T01:27:49.881Z,98979.96
2023-05-16T01:32:52.621Z,98978.66
2023-05-16T01:38:11.511Z,98983.02
2023-05-16T01:43:17.588Z,98985.28
2023-05-16T01:48:27.083Z,98987.14
2023-05-16T01:53:36.730Z,98991.70
2023-05-16T01:58:40.897Z,98996.01
2023-05-16T02:03:43.581Z,98993.16
2023-05-16T02:08:46.391Z,98994.31
2023-05-16T02:13:48.883Z,98997.54
2023-05-16T02:18:51.558Z,99000.52
2023-05-16T02:23:54.093Z,99003.45
2023-05-16T02:28:56.600Z,99004.83
2023-05-16T02:34:00.070Z,99001.81
2023-05-16T02:39:04.092Z,99006.30
2023-05-16T02:44:06.637Z,99010.98
2023-05-16T02:49:09.236Z,99012.06
2023-05-16T02:54:12.238Z,99006.75
2023-05-16T02:59:14.724Z,99009.82
2023-05-16T03:04:17.243Z,99007.39
2023-05-16T03:09:19.748Z,99009.23
2023-05-16T03:14:22.289Z,99013.05
2023-05-16T03:19:25.103Z,99016.08
2023-05-16T03:24:27.897Z,99016.95
2023-05-16T03:29:30.976Z,99021.04
2023-05-16T03:34:33.450Z,99019.31
2023-05-16T03:39:36.306Z,99025.05
2023-05-16T03:44:39.164Z,99028.95
2023-05-16T03:49:41.740Z,99025.04
2023-05-16T03:54:44.539Z,99030.17
2023-05-16T03:59:47.171Z,99030.80
2023-05-16T04:04:49.741Z,99037.05
2023-05-16T04:09:52.364Z,99046.29
2023-05-16T04:14:54.905Z,99049.52
2023-05-16T04:19:57.419Z,99050.66
2023-05-16T04:25:00.003Z,99055.31
2023-05-16T04:30:03.155Z,99061.55
2023-05-16T04:35:07.204Z,99061.03
2023-05-16T04:40:10.154Z,99065.92
2023-05-16T04:45:14.368Z,99068.77
2023-05-16T04:50:18.037Z,99072.44
2023-05-16T04:55:20.631Z,99079.05
2023-05-16T05:00:23.341Z,99083.46
2023-05-16T05:05:26.148Z,99090.05
2023-05-16T05:10:28.847Z,99091.19
2023-05-16T05:15:31.344Z,99099.98
2023-05-16T05:20:33.860Z,99104.35
2023-05-16T05:25:39.433Z,99108.88
2023-05-16T05:30:43.420Z,99124.80
2023-05-16T05:35:47.003Z,99132.63
2023-05-16T05:40:52.865Z,99142.39
2023-05-16T05:45:56.635Z,99154.62
2023-05-16T05:50:59.460Z,99166.02
2023-05-16T05:56:03.525Z,99170.52
2023-05-16T06:01:07.468Z,99170.80
2023-05-16T06:06:10.381Z,99180.90
2023-05-16T06:11:13.011Z,99190.42
2023-05-16T06:16:16.729Z,99195.28
2023-05-16T06:21:19.404Z,99199.55
2023-05-16T06:26:23.056Z,99206.99
2023-05-16T06:31:25.715Z,99211.12
2023-05-16T06:36:28.556Z,99221.49
2023-05-16T06:41:32.959Z,99227.72
2023-05-16T06:46:36.041Z,99239.33
2023-05-16T06:51:39.887Z,99250.13
2023-05-16T06:56:42.810Z,99257.71
2023-05-16T07:01:45.947Z,99269.09
2023-05-16T07:06:51.044Z,99277.96
2023-05-16T07:11:53.655Z,99287.05
2023-05-16T07:16:56.251Z,99297.82
2023-05-16T07:21:59.878Z,99300.36
2023-05-16T07:27:04.418Z,99308.97
2023-05-16T07:32:07.476Z,99315.60
2023-05-16T07:37:12.873Z,99323.48
2023-05-16T07:42:15.718Z,99323.47
2023-05-16T07:47:18.318Z,99328.06
2023-05-16T07:52:20.889Z,99336.58
2023-05-16T07:57:25.151Z,99350.52
2023-05-16T08:02:31.103Z,99359.77
2023-05-16T08:07:34.118Z,99371.61
2023-05-16T08:12:37.829Z,99384.70
2023-05-16T08:17:40.812Z,99391.20
2023-05-16T08:22:44.459Z,99402.67
2023-05-16T08:27:49.793Z,99417.33
2023-05-16T08:32:52.915Z,99430.19
2023-05-16T08:37:55.586Z,99428.05
2023-05-16T08:42:59.191Z,99446.15
2023-05-16T08:48:03.689Z,99454.50
2023-05-16T08:53:09.560Z,99456.26
2023-05-16T08:58:13.235Z,99460.23
2023-05-16T09:03:17.679Z,99471.66
2023-05-16T09:08:20.268Z,99487.10
2023-05-16T09:13:24.801Z,99491.18
2023-05-16T09:18:27.754Z,99492.63
2023-05-16T09:23:31.250Z,99501.05
2023-05-16T09:28:35.230Z,99509.46
2023-05-16T09:33:41.706Z,99526.33
2023-05-16T09:38:46.435Z,99531.65
2023-05-16T09:43:49.258Z,99534.10
2023-05-16T09:48:52.223Z,99543.84
2023-05-16T09:53:54.813Z,99562.95
2023-05-16T09:58:57.594Z,99572.65
2023-05-16T10:04:00.320Z,99578.13
2023-05-16T10:09:03.879Z,99586.80
2023-05-16T10:14:07.929Z,99585.77
2023-05-16T10:19:11.597Z,99588.61
2023-05-16T10:24:21.558Z,99591.79
2023-05-16T10:29:24.797Z,99599.80
2023-05-16T10:34:27.699Z,99596.94
2023-05-16T10:39:30.844Z,99604.44
2023-05-16T10:44:34.968Z,99609.05
2023-05-16T10:49:41.693Z,99607.79
2023-05-16T10:54:54.090Z,99612.17
2023-05-16T11:00:01.579Z,99632.11
2023-05-16T11:05:06.494Z,99641.55
2023-05-16T11:10:16.328Z,99655.58
2023-05-16T11:15:28.211Z,99653.40
2023-05-16T11:20:35.483Z,99665.13
2023-05-16T11:25:42.972Z,99679.75
2023-05-16T11:30:49.400Z,99683.85
2023-05-16T11:36:15.298Z,99694.23
2023-05-16T11:41:19.072Z,99705.95
2023-05-16T11:46:21.707Z,99714.02
2023-05-16T11:51:24.903Z,99725.59
2023-05-16T11:56:27.893Z,99730.89
2023-05-16T12:01:36.891Z,99738.45
2023-05-16T12:06:40.400Z,99742.01
2023-05-16T12:11:44.452Z,99751.84
2023-05-16T12:16:49.137Z,99763.59
2023-05-16T12:21:55.393Z,99770.48
2023-05-16T12:26:58.828Z,99772.04
2023-05-16T12:32:01.689Z,99775.35
2023-05-16T12:37:04.547Z,99781.35
2023-05-16T12:42:09.455Z,99776.80
2023-05-16T12:47:13.575Z,99783.30
2023-05-16T12:52:20.909Z,99782.83
2023-05-16T12:57:23.369Z,99778.36
2023-05-16T13:02:26.244Z,99785.30
2023-05-16T13:07:29.166Z,99792.84
2023-05-16T13:12:32.167Z,99810.52
2023-05-16T13:17:35.531Z,99817.16
2023-05-16T13:22:38.907Z,99822.89
2023-05-16T13:27:41.777Z,99829.65
2023-05-16T13:32:44.884Z,99829.52
2023-05-16T13:37:47.907Z,99835.97
2023-05-16T13:42:51.711Z,99845.68
2023-05-16T13:47:54.448Z,99846.27
2023-05-16T13:52:58.190Z,99849.40
2023-05-16T13:58:02.585Z,99852.19
2023-05-16T14:03:05.454Z,99849.02
2023-05-16T14:08:08.192Z,99844.45
2023-05-16T14:13:10.886Z,99841.89
2023-05-16T14:18:14.076Z,99842.16
2023-05-16T14:23:16.775Z,99839.90
2023-05-16T14:28:19.310Z,99839.84
2023-05-16T14:33:21.919Z,99849.27
2023-05-16T14:38:24.687Z,99852.37
2023-05-16T14:43:27.218Z,99854.38
2023-05-16T14:48:30.009Z,99854.90
2023-05-16T14:53:32.701Z,99857.64
2023-05-16T14:58:35.611Z,99858.67
2023-05-16T15:03:53.589Z,99864.18
2023-05-16T15:08:57.601Z,99866.42
2023-05-16T15:14:01.672Z,99859.59
2023-05-16T15:19:04.271Z,99856.83
2023-05-16T15:24:08.110Z,99862.34
2023-05-16T15:29:11.824Z,99873.02
2023-05-16T15:34:14.342Z,99870.41
2023-05-16T15:39:17.729Z,99866.48
2023-05-16T15:44:20.752Z,99861.45
2023-05-16T15:49:23.532Z,99857.68
2023-05-16T15:54:27.487Z,99853.29
2023-05-16T15:59:30.231Z,99853.08
2023-05-16T16:04:32.884Z,99856.70
2023-05-16T16:09:35.435Z,99855.88
2023-05-16T16:14:38.582Z,99860.52
2023-05-16T16:19:41.262Z,99862.09
2023-05-16T16:24:43.811Z,99868.36
2023-05-16T16:29:46.439Z,99872.59
2023-05-16T16:34:49.275Z,99871.60
2023-05-16T16:39:51.802Z,99866.17
2023-05-16T16:44:54.422Z,99865.21
2023-05-16T16:49:56.922Z,99870.53
2023-05-16T16:54:59.910Z,99880.22
2023-05-16T17:00:02.641Z,99892.38
2023-05-16T17:05:06.544Z,99892.30
2023-05-16T17:10:09.602Z,99896.98
2023-05-16T17:15:12.788Z,99895.20
2023-05-16T17:20:15.766Z,99902.19
2023-05-16T17:25:18.927Z,99906.20
2023-05-16T17:30:24.611Z,99911.59
2023-05-16T17:35:27.747Z,99915.08
2023-05-16T17:40:30.566Z,99927.80
2023-05-16T17:45:33.986Z,99940.23
2023-05-16T17:50:37.237Z,99949.14
2023-05-16T17:55:39.774Z,99951.68
2023-05-16T18:00:42.340Z,99964.35
2023-05-16T18:05:45.012Z,99976.04
2023-05-16T18:10:52.280Z,99980.70
2023-05-16T18:15:55.132Z,99980.77
2023-05-16T18:20:58.164Z,99984.70
2023-05-16T18:26:00.852Z,99990.11
2023-05-16T18:31:03.589Z,99995.09
2023-05-16T18:36:09.754Z,99999.57
2023-05-16T18:41:12.472Z,99999.39
2023-05-16T18:46:14.987Z,100003.46
2023-05-16T18:51:17.550Z,100011.41
2023-05-16T18:56:20.093Z,100019.99
2023-05-16T19:01:22.770Z,100022.93
2023-05-16T19:06:25.474Z,100035.34
2023-05-16T19:11:28.059Z,100042.94
2023-05-16T19:16:30.564Z,100049.52
2023-05-16T19:21:33.779Z,100054.09
2023-05-16T19:26:37.271Z,100056.09
2023-05-16T19:31:39.806Z,100067.14
2023-05-16T19:36:42.614Z,100063.39
2023-05-16T19:41:47.675Z,100065.38
2023-05-16T19:46:54.325Z,100070.88
2023-05-16T19:51:56.866Z,100075.30
2023-05-16T19:56:59.411Z,100079.22
2023-05-16T20:02:02.005Z,100083.27
2023-05-16T20:07:05.340Z,100085.39
2023-05-16T20:12:08.226Z,100085.64
2023-05-16T20:17:11.108Z,100087.52
2023-05-16T20:22:13.659Z,100087.34
2023-05-16T20:27:16.452Z,100083.02
2023-05-16T20:32:19.443Z,100080.05
2023-05-16T20:37:26.359Z,100082.98
2023-05-16T20:42:28.992Z,100084.89
2023-05-16T20:47:31.604Z,100088.64
2023-05-16T20:52:34.107Z,100088.17
2023-05-16T20:57:36.675Z,100091.88
2023-05-16T21:02:39.394Z,100093.58
2023-05-16T21:07:42.396Z,100093.63
2023-05-16T21:12:45.040Z,100096.50
2023-05-16T21:17:47.655Z,100107.28
2023-05-16T21:22:50.310Z,100112.05
2023-05-16T21:27:52.915Z,100121.76
2023-05-16T21:32:55.575Z,100127.42
2023-05-16T21:37:58.216Z,100132.33
2023-05-16T21:43:00.873Z,100134.06
2023-05-16T21:48:03.680Z,100137.70
2023-05-16T21:53:06.324Z,100135.39
2023-05-16T21:58:08.771Z,100138.39
2023-05-16T22:03:11.465Z,100144.07
2023-05-16T22:08:14.161Z,100140.23
2023-05-16T22:13:16.755Z,100142.77
2023-05-16T22:18:19.587Z,100143.96
2023-05-16T22:23:22.336Z,100145.42
2023-05-16T22:28:24.819Z,100149.90
2023-05-16T22:33:27.723Z,100146.94
2023-05-16T22:38:31.634Z,100150.27
2023-05-16T22:43:34.389Z,100154.06
2023-05-16T22:48:36.945Z,100153.52
2023-05-16T22:53:40.429Z,100155.75
2023-05-16T22:58:42.953Z,100168.52
2023-05-16T23:03:45.544Z,100176.08
2023-05-16T23:08:48.267Z,100177.99
2023-05-16T23:13:51.137Z,100174.52
2023-05-16T23:18:53.747Z,100174.05
2023-05-16T23:23:56.373Z,100177.27
2023-05-16T23:28:58.871Z,100179.81
2023-05-16T23:34:01.603Z,100186.73
2023-05-16T23:39:08.165Z,100185.02
2023-05-16T23:44:10.723Z,100186.88
2023-05-16T23:49:13.288Z,100188.50
2023-05-16T23:54:15.815Z,100193.59
2023-05-16T23:59:21.332Z,100195.81
